TDPD/DOM METAR and TAF weather

Enter ICAO airport designator
Station Type Date Time Source
TDPD METAR 2019/10/21 00:00 UTC NOAA

TDPD 210000Z 30004KT 9999 BKN017 24/23 Q1014


Station Type Date Time Source
TDPD Decoded METAR 2019/10/21 00:00 UTC NOAA

Melville Hall Airport, Dominica (TDPD) 15-32N 061-18W 14M
Oct 20, 2019 - 08:00 PM EDT / 2019.10.21 0000 UTC
Wind: from the WNW (300 degrees) at 5 MPH (4 KT):0
Visibility: greater than 7 mile(s):0
Sky conditions: mostly cloudy
Temperature: 75 F (24 C)
Dew Point: 73 F (23 C)
Relative Humidity: 94%
Pressure (altimeter): 29.94 in. Hg (1014 hPa)
ob: TDPD 210000Z 30004KT 9999 BKN017 24/23 Q1014
cycle: 0

Station Type Date Time Source
TDPD TAF 2019/10/20 18:14 UTC NOAA

TAF TDPD 201700Z 2018/2118 08006KT 9999 SCT020 PROB40
TEMPO 2021/2103 SHRA BKN015

Example: see airport list